sensor_id;sensor_type;location;lat;lon;timestamp;P1;durP1;ratioP1;P2;durP2;ratioP2
20185;SDS011;10252;48.792;8.582;2023-05-23T00:00:21;12.93;;;10.85;;
20185;SDS011;10252;48.792;8.582;2023-05-23T00:05:22;19.38;;;12.68;;
20185;SDS011;10252;48.792;8.582;2023-05-23T00:10:25;14.25;;;11.63;;
20185;SDS011;10252;48.792;8.582;2023-05-23T00:15:27;17.60;;;12.35;;
20185;SDS011;10252;48.792;8.582;2023-05-23T00:20:28;16.65;;;11.98;;
20185;SDS011;10252;48.792;8.582;2023-05-23T00:25:29;12.95;;;11.25;;
20185;SDS011;10252;48.792;8.582;2023-05-23T00:30:33;14.82;;;11.98;;
20185;SDS011;10252;48.792;8.582;2023-05-23T00:35:34;13.27;;;11.73;;
20185;SDS011;10252;48.792;8.582;2023-05-23T00:40:35;13.88;;;11.98;;
20185;SDS011;10252;48.792;8.582;2023-05-23T00:45:36;13.90;;;11.43;;
20185;SDS011;10252;48.792;8.582;2023-05-23T00:50:37;15.88;;;12.15;;
20185;SDS011;10252;48.792;8.582;2023-05-23T00:55:38;14.45;;;11.88;;
20185;SDS011;10252;48.792;8.582;2023-05-23T01:00:40;13.73;;;11.73;;
20185;SDS011;10252;48.792;8.582;2023-05-23T01:05:41;15.90;;;13.00;;
20185;SDS011;10252;48.792;8.582;2023-05-23T01:10:43;14.18;;;12.52;;
20185;SDS011;10252;48.792;8.582;2023-05-23T01:15:49;15.80;;;12.93;;
20185;SDS011;10252;48.792;8.582;2023-05-23T01:20:55;16.85;;;13.13;;
20185;SDS011;10252;48.792;8.582;2023-05-23T01:26:09;17.83;;;12.38;;
20185;SDS011;10252;48.792;8.582;2023-05-23T01:31:12;19.65;;;13.73;;
20185;SDS011;10252;48.792;8.582;2023-05-23T01:36:16;15.30;;;12.65;;
20185;SDS011;10252;48.792;8.582;2023-05-23T01:41:17;15.48;;;11.75;;
20185;SDS011;10252;48.792;8.582;2023-05-23T01:46:19;19.08;;;12.98;;
20185;SDS011;10252;48.792;8.582;2023-05-23T01:51:21;15.48;;;12.93;;
20185;SDS011;10252;48.792;8.582;2023-05-23T01:56:22;15.65;;;12.77;;
20185;SDS011;10252;48.792;8.582;2023-05-23T02:01:25;18.38;;;13.25;;
20185;SDS011;10252;48.792;8.582;2023-05-23T02:06:26;20.35;;;13.45;;
20185;SDS011;10252;48.792;8.582;2023-05-23T02:11:27;17.40;;;14.02;;
20185;SDS011;10252;48.792;8.582;2023-05-23T02:16:28;16.67;;;13.98;;
20185;SDS011;10252;48.792;8.582;2023-05-23T02:21:30;19.70;;;13.45;;
20185;SDS011;10252;48.792;8.582;2023-05-23T02:26:31;16.10;;;12.75;;
20185;SDS011;10252;48.792;8.582;2023-05-23T02:31:32;21.77;;;14.43;;
20185;SDS011;10252;48.792;8.582;2023-05-23T02:36:33;20.60;;;14.80;;
20185;SDS011;10252;48.792;8.582;2023-05-23T02:41:36;19.10;;;15.32;;
20185;SDS011;10252;48.792;8.582;2023-05-23T02:46:38;21.23;;;15.52;;
20185;SDS011;10252;48.792;8.582;2023-05-23T02:51:39;17.38;;;14.32;;
20185;SDS011;10252;48.792;8.582;2023-05-23T02:56:40;15.50;;;12.57;;
20185;SDS011;10252;48.792;8.582;2023-05-23T03:01:44;17.30;;;13.23;;
20185;SDS011;10252;48.792;8.582;2023-05-23T03:06:45;18.25;;;14.10;;
20185;SDS011;10252;48.792;8.582;2023-05-23T03:11:46;18.83;;;14.05;;
20185;SDS011;10252;48.792;8.582;2023-05-23T03:16:47;22.27;;;15.55;;
20185;SDS011;10252;48.792;8.582;2023-05-23T03:21:48;21.27;;;15.45;;
20185;SDS011;10252;48.792;8.582;2023-05-23T03:26:51;28.40;;;19.30;;
20185;SDS011;10252;48.792;8.582;2023-05-23T03:31:52;23.27;;;15.90;;
20185;SDS011;10252;48.792;8.582;2023-05-23T03:36:53;18.02;;;14.57;;
20185;SDS011;10252;48.792;8.582;2023-05-23T03:41:55;19.30;;;14.77;;
20185;SDS011;10252;48.792;8.582;2023-05-23T03:46:56;18.75;;;14.85;;
20185;SDS011;10252;48.792;8.582;2023-05-23T03:51:57;25.30;;;17.95;;
20185;SDS011;10252;48.792;8.582;2023-05-23T03:56:59;43.08;;;27.35;;
20185;SDS011;10252;48.792;8.582;2023-05-23T04:02:02;60.70;;;36.40;;
20185;SDS011;10252;48.792;8.582;2023-05-23T04:07:04;48.00;;;30.20;;
20185;SDS011;10252;48.792;8.582;2023-05-23T04:12:05;80.57;;;50.78;;
20185;SDS011;10252;48.792;8.582;2023-05-23T04:17:09;63.45;;;38.90;;
20185;SDS011;10252;48.792;8.582;2023-05-23T04:22:11;82.07;;;50.47;;
20185;SDS011;10252;48.792;8.582;2023-05-23T04:27:12;80.80;;;52.10;;
20185;SDS011;10252;48.792;8.582;2023-05-23T04:32:13;77.65;;;50.22;;
20185;SDS011;10252;48.792;8.582;2023-05-23T04:37:17;79.72;;;50.47;;
20185;SDS011;10252;48.792;8.582;2023-05-23T04:42:21;76.35;;;51.47;;
20185;SDS011;10252;48.792;8.582;2023-05-23T04:47:47;72.18;;;50.25;;
20185;SDS011;10252;48.792;8.582;2023-05-23T04:53:02;76.03;;;50.25;;
20185;SDS011;10252;48.792;8.582;2023-05-23T04:58:03;69.15;;;47.78;;
20185;SDS011;10252;48.792;8.582;2023-05-23T05:03:05;71.63;;;49.08;;
20185;SDS011;10252;48.792;8.582;2023-05-23T05:08:12;69.63;;;46.17;;
20185;SDS011;10252;48.792;8.582;2023-05-23T05:13:13;69.55;;;47.22;;
20185;SDS011;10252;48.792;8.582;2023-05-23T05:18:19;71.18;;;46.90;;
20185;SDS011;10252;48.792;8.582;2023-05-23T05:23:25;63.55;;;45.95;;
20185;SDS011;10252;48.792;8.582;2023-05-23T05:28:28;64.97;;;45.40;;
20185;SDS011;10252;48.792;8.582;2023-05-23T05:33:29;60.50;;;44.05;;
20185;SDS011;10252;48.792;8.582;2023-05-23T05:38:46;64.20;;;42.83;;
20185;SDS011;10252;48.792;8.582;2023-05-23T05:43:50;60.88;;;43.42;;
20185;SDS011;10252;48.792;8.582;2023-05-23T05:48:51;63.30;;;43.33;;
20185;SDS011;10252;48.792;8.582;2023-05-23T05:53:53;53.92;;;40.67;;
20185;SDS011;10252;48.792;8.582;2023-05-23T05:58:54;55.75;;;42.08;;
20185;SDS011;10252;48.792;8.582;2023-05-23T06:03:57;60.17;;;41.25;;
20185;SDS011;10252;48.792;8.582;2023-05-23T06:08:58;53.80;;;37.90;;
20185;SDS011;10252;48.792;8.582;2023-05-23T06:13:59;45.63;;;34.15;;
20185;SDS011;10252;48.792;8.582;2023-05-23T06:19:01;49.63;;;37.22;;
20185;SDS011;10252;48.792;8.582;2023-05-23T06:24:03;50.08;;;36.80;;
20185;SDS011;10252;48.792;8.582;2023-05-23T06:29:05;45.25;;;32.80;;
20185;SDS011;10252;48.792;8.582;2023-05-23T06:34:08;43.80;;;33.92;;
20185;SDS011;10252;48.792;8.582;2023-05-23T06:39:09;47.42;;;34.92;;
20185;SDS011;10252;48.792;8.582;2023-05-23T06:44:10;47.00;;;33.65;;
20185;SDS011;10252;48.792;8.582;2023-05-23T06:49:14;46.63;;;34.53;;
20185;SDS011;10252;48.792;8.582;2023-05-23T06:54:17;48.55;;;34.85;;
20185;SDS011;10252;48.792;8.582;2023-05-23T06:59:18;42.08;;;32.58;;
20185;SDS011;10252;48.792;8.582;2023-05-23T07:04:19;46.47;;;34.95;;
20185;SDS011;10252;48.792;8.582;2023-05-23T07:09:21;41.38;;;30.98;;
20185;SDS011;10252;48.792;8.582;2023-05-23T07:14:22;39.60;;;30.73;;
20185;SDS011;10252;48.792;8.582;2023-05-23T07:19:23;35.70;;;27.92;;
20185;SDS011;10252;48.792;8.582;2023-05-23T07:24:26;36.28;;;27.05;;
20185;SDS011;10252;48.792;8.582;2023-05-23T07:29:29;33.22;;;25.42;;
20185;SDS011;10252;48.792;8.582;2023-05-23T07:34:31;32.60;;;24.38;;
20185;SDS011;10252;48.792;8.582;2023-05-23T07:39:35;29.67;;;24.00;;
20185;SDS011;10252;48.792;8.582;2023-05-23T07:44:36;27.67;;;21.00;;
20185;SDS011;10252;48.792;8.582;2023-05-23T07:49:38;32.40;;;22.77;;
20185;SDS011;10252;48.792;8.582;2023-05-23T07:54:39;27.67;;;21.95;;
20185;SDS011;10252;48.792;8.582;2023-05-23T07:59:42;29.60;;;21.35;;
20185;SDS011;10252;48.792;8.582;2023-05-23T08:04:43;22.20;;;19.48;;
20185;SDS011;10252;48.792;8.582;2023-05-23T08:09:45;26.33;;;20.17;;
20185;SDS011;10252;48.792;8.582;2023-05-23T08:14:49;25.02;;;21.10;;
20185;SDS011;10252;48.792;8.582;2023-05-23T08:19:56;25.63;;;21.23;;
20185;SDS011;10252;48.792;8.582;2023-05-23T08:24:57;30.42;;;23.05;;
20185;SDS011;10252;48.792;8.582;2023-05-23T08:30:03;31.25;;;21.90;;
20185;SDS011;10252;48.792;8.582;2023-05-23T08:35:07;27.83;;;21.90;;
20185;SDS011;10252;48.792;8.582;2023-05-23T08:40:09;27.65;;;22.00;;
20185;SDS011;10252;48.792;8.582;2023-05-23T08:45:21;32.42;;;20.08;;
20185;SDS011;10252;48.792;8.582;2023-05-23T08:50:22;25.55;;;20.42;;
20185;SDS011;10252;48.792;8.582;2023-05-23T08:55:27;24.92;;;19.92;;
20185;SDS011;10252;48.792;8.582;2023-05-23T09:00:30;25.73;;;19.85;;
20185;SDS011;10252;48.792;8.582;2023-05-23T09:05:34;26.23;;;18.90;;
20185;SDS011;10252;48.792;8.582;2023-05-23T09:10:36;25.25;;;18.02;;
20185;SDS011;10252;48.792;8.582;2023-05-23T09:20:59;25.15;;;18.70;;
20185;SDS011;10252;48.792;8.582;2023-05-23T09:26:04;27.83;;;18.35;;
20185;SDS011;10252;48.792;8.582;2023-05-23T09:31:07;26.25;;;19.13;;
20185;SDS011;10252;48.792;8.582;2023-05-23T09:36:08;22.67;;;15.05;;
20185;SDS011;10252;48.792;8.582;2023-05-23T09:41:11;18.92;;;16.10;;
20185;SDS011;10252;48.792;8.582;2023-05-23T09:46:13;18.50;;;14.95;;
20185;SDS011;10252;48.792;8.582;2023-05-23T09:51:14;18.00;;;14.98;;
20185;SDS011;10252;48.792;8.582;2023-05-23T09:56:18;17.17;;;15.00;;
20185;SDS011;10252;48.792;8.582;2023-05-23T10:01:19;17.38;;;13.65;;
20185;SDS011;10252;48.792;8.582;2023-05-23T10:06:24;17.42;;;13.93;;
20185;SDS011;10252;48.792;8.582;2023-05-23T10:21:43;17.33;;;13.77;;
20185;SDS011;10252;48.792;8.582;2023-05-23T10:26:44;14.63;;;12.25;;
20185;SDS011;10252;48.792;8.582;2023-05-23T10:31:45;13.93;;;12.38;;
20185;SDS011;10252;48.792;8.582;2023-05-23T10:36:55;15.40;;;12.05;;
20185;SDS011;10252;48.792;8.582;2023-05-23T10:41:59;17.67;;;13.13;;
20185;SDS011;10252;48.792;8.582;2023-05-23T10:47:02;16.55;;;12.35;;
20185;SDS011;10252;48.792;8.582;2023-05-23T10:52:04;13.05;;;11.75;;
20185;SDS011;10252;48.792;8.582;2023-05-23T10:57:08;12.02;;;10.68;;
20185;SDS011;10252;48.792;8.582;2023-05-23T11:02:14;12.25;;;10.95;;
20185;SDS011;10252;48.792;8.582;2023-05-23T11:07:28;10.77;;;9.52;;
20185;SDS011;10252;48.792;8.582;2023-05-23T11:12:36;9.93;;;8.82;;
20185;SDS011;10252;48.792;8.582;2023-05-23T11:17:38;9.13;;;8.20;;
20185;SDS011;10252;48.792;8.582;2023-05-23T11:22:52;9.63;;;8.23;;
20185;SDS011;10252;48.792;8.582;2023-05-23T11:27:54;8.23;;;6.63;;
20185;SDS011;10252;48.792;8.582;2023-05-23T11:32:55;8.68;;;6.82;;
20185;SDS011;10252;48.792;8.582;2023-05-23T11:37:56;8.15;;;6.88;;
20185;SDS011;10252;48.792;8.582;2023-05-23T11:42:58;8.10;;;6.60;;
20185;SDS011;10252;48.792;8.582;2023-05-23T11:48:09;8.15;;;5.68;;
20185;SDS011;10252;48.792;8.582;2023-05-23T11:53:12;7.40;;;6.10;;
20185;SDS011;10252;48.792;8.582;2023-05-23T11:58:16;5.78;;;5.28;;
20185;SDS011;10252;48.792;8.582;2023-05-23T12:03:17;6.57;;;5.15;;
20185;SDS011;10252;48.792;8.582;2023-05-23T12:08:18;5.82;;;5.20;;
20185;SDS011;10252;48.792;8.582;2023-05-23T12:13:22;6.15;;;5.55;;
20185;SDS011;10252;48.792;8.582;2023-05-23T12:18:24;6.50;;;5.82;;
20185;SDS011;10252;48.792;8.582;2023-05-23T12:23:28;5.68;;;5.07;;
20185;SDS011;10252;48.792;8.582;2023-05-23T12:28:39;4.32;;;3.92;;
20185;SDS011;10252;48.792;8.582;2023-05-23T12:33:42;4.25;;;3.70;;
20185;SDS011;10252;48.792;8.582;2023-05-23T12:38:44;3.80;;;3.42;;
20185;SDS011;10252;48.792;8.582;2023-05-23T12:43:49;4.57;;;4.15;;
20185;SDS011;10252;48.792;8.582;2023-05-23T12:48:51;6.15;;;4.30;;
20185;SDS011;10252;48.792;8.582;2023-05-23T12:53:52;4.97;;;4.20;;
20185;SDS011;10252;48.792;8.582;2023-05-23T12:58:53;4.30;;;3.90;;
20185;SDS011;10252;48.792;8.582;2023-05-23T13:03:54;4.75;;;4.00;;
20185;SDS011;10252;48.792;8.582;2023-05-23T13:08:56;4.28;;;3.67;;
20185;SDS011;10252;48.792;8.582;2023-05-23T13:13:57;4.70;;;4.20;;
20185;SDS011;10252;48.792;8.582;2023-05-23T13:18:58;4.47;;;3.90;;
20185;SDS011;10252;48.792;8.582;2023-05-23T13:23:59;4.45;;;4.05;;
20185;SDS011;10252;48.792;8.582;2023-05-23T13:29:00;5.07;;;4.40;;
20185;SDS011;10252;48.792;8.582;2023-05-23T13:34:02;3.95;;;3.55;;
20185;SDS011;10252;48.792;8.582;2023-05-23T13:39:03;4.18;;;3.78;;
20185;SDS011;10252;48.792;8.582;2023-05-23T13:44:04;3.97;;;3.58;;
20185;SDS011;10252;48.792;8.582;2023-05-23T13:49:05;4.03;;;3.70;;
20185;SDS011;10252;48.792;8.582;2023-05-23T13:54:06;5.38;;;3.40;;
20185;SDS011;10252;48.792;8.582;2023-05-23T13:59:07;3.47;;;3.13;;
20185;SDS011;10252;48.792;8.582;2023-05-23T14:04:08;3.78;;;3.45;;
20185;SDS011;10252;48.792;8.582;2023-05-23T14:09:10;3.72;;;3.42;;
20185;SDS011;10252;48.792;8.582;2023-05-23T14:14:11;4.97;;;4.47;;
20185;SDS011;10252;48.792;8.582;2023-05-23T14:19:12;4.13;;;3.70;;
20185;SDS011;10252;48.792;8.582;2023-05-23T14:24:13;4.65;;;3.83;;
20185;SDS011;10252;48.792;8.582;2023-05-23T14:29:15;4.80;;;4.30;;
20185;SDS011;10252;48.792;8.582;2023-05-23T14:34:16;7.80;;;5.85;;
20185;SDS011;10252;48.792;8.582;2023-05-23T14:39:17;5.80;;;5.10;;
20185;SDS011;10252;48.792;8.582;2023-05-23T14:44:18;7.05;;;5.18;;
20185;SDS011;10252;48.792;8.582;2023-05-23T14:49:19;4.80;;;4.40;;
20185;SDS011;10252;48.792;8.582;2023-05-23T14:54:20;7.03;;;4.57;;
20185;SDS011;10252;48.792;8.582;2023-05-23T14:59:21;5.88;;;4.25;;
20185;SDS011;10252;48.792;8.582;2023-05-23T15:04:22;5.63;;;4.60;;
20185;SDS011;10252;48.792;8.582;2023-05-23T15:09:24;8.13;;;6.13;;
20185;SDS011;10252;48.792;8.582;2023-05-23T15:14:25;6.88;;;6.18;;
20185;SDS011;10252;48.792;8.582;2023-05-23T15:19:31;11.68;;;5.68;;
20185;SDS011;10252;48.792;8.582;2023-05-23T15:24:35;7.25;;;5.70;;
20185;SDS011;10252;48.792;8.582;2023-05-23T15:29:36;12.07;;;7.65;;
20185;SDS011;10252;48.792;8.582;2023-05-23T15:34:39;7.97;;;6.90;;
20185;SDS011;10252;48.792;8.582;2023-05-23T15:39:40;7.97;;;7.00;;
20185;SDS011;10252;48.792;8.582;2023-05-23T15:44:41;9.05;;;7.63;;
20185;SDS011;10252;48.792;8.582;2023-05-23T15:49:42;8.63;;;7.50;;
20185;SDS011;10252;48.792;8.582;2023-05-23T15:54:44;11.10;;;8.13;;
20185;SDS011;10252;48.792;8.582;2023-05-23T15:59:45;8.38;;;7.47;;
20185;SDS011;10252;48.792;8.582;2023-05-23T16:04:46;9.88;;;8.43;;
20185;SDS011;10252;48.792;8.582;2023-05-23T16:09:47;9.30;;;8.15;;
20185;SDS011;10252;48.792;8.582;2023-05-23T16:14:48;10.63;;;8.27;;
20185;SDS011;10252;48.792;8.582;2023-05-23T16:19:49;12.35;;;8.38;;
20185;SDS011;10252;48.792;8.582;2023-05-23T16:24:50;11.80;;;9.25;;
20185;SDS011;10252;48.792;8.582;2023-05-23T16:29:51;9.27;;;8.32;;
20185;SDS011;10252;48.792;8.582;2023-05-23T16:34:52;11.02;;;8.57;;
20185;SDS011;10252;48.792;8.582;2023-05-23T16:39:53;10.07;;;8.20;;
20185;SDS011;10252;48.792;8.582;2023-05-23T16:44:55;11.75;;;8.00;;
20185;SDS011;10252;48.792;8.582;2023-05-23T16:49:56;9.80;;;7.75;;
20185;SDS011;10252;48.792;8.582;2023-05-23T16:54:57;9.77;;;7.70;;
20185;SDS011;10252;48.792;8.582;2023-05-23T16:59:58;7.45;;;6.70;;
20185;SDS011;10252;48.792;8.582;2023-05-23T17:04:59;9.65;;;8.25;;
20185;SDS011;10252;48.792;8.582;2023-05-23T17:10:00;8.63;;;7.38;;
20185;SDS011;10252;48.792;8.582;2023-05-23T17:15:01;8.77;;;7.85;;
20185;SDS011;10252;48.792;8.582;2023-05-23T17:20:03;11.18;;;8.00;;
20185;SDS011;10252;48.792;8.582;2023-05-23T17:25:04;8.40;;;7.57;;
20185;SDS011;10252;48.792;8.582;2023-05-23T17:30:06;11.90;;;8.70;;
20185;SDS011;10252;48.792;8.582;2023-05-23T17:35:07;9.98;;;8.45;;
20185;SDS011;10252;48.792;8.582;2023-05-23T17:40:09;10.65;;;8.48;;
20185;SDS011;10252;48.792;8.582;2023-05-23T17:45:10;12.23;;;9.30;;
20185;SDS011;10252;48.792;8.582;2023-05-23T17:50:11;13.55;;;10.15;;
20185;SDS011;10252;48.792;8.582;2023-05-23T17:55:12;14.13;;;10.18;;
20185;SDS011;10252;48.792;8.582;2023-05-23T18:00:13;12.90;;;10.38;;
20185;SDS011;10252;48.792;8.582;2023-05-23T18:05:15;14.50;;;12.73;;
20185;SDS011;10252;48.792;8.582;2023-05-23T18:10:19;15.15;;;13.02;;
20185;SDS011;10252;48.792;8.582;2023-05-23T18:15:20;18.20;;;13.35;;
20185;SDS011;10252;48.792;8.582;2023-05-23T18:20:21;20.38;;;14.27;;
20185;SDS011;10252;48.792;8.582;2023-05-23T18:25:22;19.70;;;13.07;;
20185;SDS011;10252;48.792;8.582;2023-05-23T18:30:27;19.15;;;13.50;;
20185;SDS011;10252;48.792;8.582;2023-05-23T18:35:29;17.60;;;12.95;;
20185;SDS011;10252;48.792;8.582;2023-05-23T18:40:30;20.20;;;14.30;;
20185;SDS011;10252;48.792;8.582;2023-05-23T18:45:31;18.95;;;13.95;;
20185;SDS011;10252;48.792;8.582;2023-05-23T18:50:32;17.15;;;13.75;;
20185;SDS011;10252;48.792;8.582;2023-05-23T18:55:34;19.80;;;12.82;;
20185;SDS011;10252;48.792;8.582;2023-05-23T19:00:35;17.70;;;13.27;;
20185;SDS011;10252;48.792;8.582;2023-05-23T19:05:36;17.08;;;11.93;;
20185;SDS011;10252;48.792;8.582;2023-05-23T19:10:37;17.88;;;12.63;;
20185;SDS011;10252;48.792;8.582;2023-05-23T19:15:38;17.17;;;11.88;;
20185;SDS011;10252;48.792;8.582;2023-05-23T19:20:40;18.25;;;11.70;;
20185;SDS011;10252;48.792;8.582;2023-05-23T19:25:41;18.15;;;12.38;;
20185;SDS011;10252;48.792;8.582;2023-05-23T19:30:42;14.80;;;11.05;;
20185;SDS011;10252;48.792;8.582;2023-05-23T19:35:43;13.98;;;10.15;;
20185;SDS011;10252;48.792;8.582;2023-05-23T19:40:45;16.23;;;11.88;;
20185;SDS011;10252;48.792;8.582;2023-05-23T19:45:46;15.15;;;10.57;;
20185;SDS011;10252;48.792;8.582;2023-05-23T19:50:47;15.55;;;11.18;;
20185;SDS011;10252;48.792;8.582;2023-05-23T19:55:48;14.45;;;11.18;;
20185;SDS011;10252;48.792;8.582;2023-05-23T20:00:50;16.92;;;10.55;;
20185;SDS011;10252;48.792;8.582;2023-05-23T20:05:51;17.35;;;11.45;;
20185;SDS011;10252;48.792;8.582;2023-05-23T20:10:52;18.55;;;12.10;;
20185;SDS011;10252;48.792;8.582;2023-05-23T20:15:54;19.35;;;12.00;;
20185;SDS011;10252;48.792;8.582;2023-05-23T20:20:55;19.05;;;11.38;;
20185;SDS011;10252;48.792;8.582;2023-05-23T20:25:57;20.60;;;12.73;;
20185;SDS011;10252;48.792;8.582;2023-05-23T20:30:58;18.23;;;11.73;;
20185;SDS011;10252;48.792;8.582;2023-05-23T20:35:59;18.35;;;12.90;;
20185;SDS011;10252;48.792;8.582;2023-05-23T20:41:00;22.55;;;12.75;;
20185;SDS011;10252;48.792;8.582;2023-05-23T20:46:05;16.92;;;12.50;;
20185;SDS011;10252;48.792;8.582;2023-05-23T20:51:08;16.00;;;11.57;;
20185;SDS011;10252;48.792;8.582;2023-05-23T20:56:10;15.32;;;10.57;;
20185;SDS011;10252;48.792;8.582;2023-05-23T21:01:11;14.57;;;9.77;;
20185;SDS011;10252;48.792;8.582;2023-05-23T21:06:14;14.38;;;9.63;;
20185;SDS011;10252;48.792;8.582;2023-05-23T21:11:15;11.60;;;9.15;;
20185;SDS011;10252;48.792;8.582;2023-05-23T21:16:16;14.73;;;8.80;;
20185;SDS011;10252;48.792;8.582;2023-05-23T21:21:17;15.38;;;9.52;;
20185;SDS011;10252;48.792;8.582;2023-05-23T21:26:18;11.35;;;8.32;;
20185;SDS011;10252;48.792;8.582;2023-05-23T21:31:19;16.25;;;8.60;;
20185;SDS011;10252;48.792;8.582;2023-05-23T21:36:20;12.70;;;8.02;;
20185;SDS011;10252;48.792;8.582;2023-05-23T21:41:21;12.43;;;8.05;;
20185;SDS011;10252;48.792;8.582;2023-05-23T21:46:24;10.75;;;7.03;;
20185;SDS011;10252;48.792;8.582;2023-05-23T21:51:26;11.30;;;8.05;;
20185;SDS011;10252;48.792;8.582;2023-05-23T21:56:27;11.40;;;7.55;;
20185;SDS011;10252;48.792;8.582;2023-05-23T22:01:28;11.68;;;7.95;;
20185;SDS011;10252;48.792;8.582;2023-05-23T22:06:29;11.63;;;7.53;;
20185;SDS011;10252;48.792;8.582;2023-05-23T22:11:31;10.85;;;7.60;;
20185;SDS011;10252;48.792;8.582;2023-05-23T22:16:32;13.27;;;7.22;;
20185;SDS011;10252;48.792;8.582;2023-05-23T22:21:39;10.88;;;7.10;;
20185;SDS011;10252;48.792;8.582;2023-05-23T22:26:40;9.23;;;7.15;;
20185;SDS011;10252;48.792;8.582;2023-05-23T22:31:42;11.73;;;7.10;;
20185;SDS011;10252;48.792;8.582;2023-05-23T22:36:45;11.98;;;6.50;;
20185;SDS011;10252;48.792;8.582;2023-05-23T22:41:49;11.52;;;6.80;;
20185;SDS011;10252;48.792;8.582;2023-05-23T22:46:51;11.60;;;8.07;;
20185;SDS011;10252;48.792;8.582;2023-05-23T22:51:52;10.25;;;6.75;;
20185;SDS011;10252;48.792;8.582;2023-05-23T22:56:53;8.93;;;6.38;;
20185;SDS011;10252;48.792;8.582;2023-05-23T23:01:54;10.27;;;6.40;;
20185;SDS011;10252;48.792;8.582;2023-05-23T23:06:56;6.93;;;5.45;;
20185;SDS011;10252;48.792;8.582;2023-05-23T23:11:58;8.35;;;5.47;;
20185;SDS011;10252;48.792;8.582;2023-05-23T23:16:59;8.50;;;4.78;;
20185;SDS011;10252;48.792;8.582;2023-05-23T23:22:00;6.10;;;3.95;;
20185;SDS011;10252;48.792;8.582;2023-05-23T23:27:01;7.55;;;5.22;;
20185;SDS011;10252;48.792;8.582;2023-05-23T23:32:02;7.00;;;4.82;;
20185;SDS011;10252;48.792;8.582;2023-05-23T23:37:04;10.77;;;5.30;;
20185;SDS011;10252;48.792;8.582;2023-05-23T23:42:05;6.90;;;4.68;;
20185;SDS011;10252;48.792;8.582;2023-05-23T23:47:06;6.90;;;4.32;;
20185;SDS011;10252;48.792;8.582;2023-05-23T23:52:07;6.30;;;4.25;;
20185;SDS011;10252;48.792;8.582;2023-05-23T23:57:08;9.13;;;5.18;;
